sensor_id;sensor_type;location;lat;lon;timestamp;pressure;altitude;pressure_sealevel;temperature;humidity
58991;BME280;44781;53.444;14.476;2022-12-18T00:01:28;103206.19;;;-2.78;77.36
58991;BME280;44781;53.444;14.476;2022-12-18T00:03:57;103205.02;;;-2.76;77.41
58991;BME280;44781;53.444;14.476;2022-12-18T00:06:26;103205.38;;;-2.75;77.37
58991;BME280;44781;53.444;14.476;2022-12-18T00:08:56;103207.61;;;-2.75;77.18
58991;BME280;44781;53.444;14.476;2022-12-18T00:11:27;103209.83;;;-2.78;77.26
58991;BME280;44781;53.444;14.476;2022-12-18T00:13:57;103209.07;;;-2.81;77.17
58991;BME280;44781;53.444;14.476;2022-12-18T00:16:26;103207.96;;;-2.84;76.99
58991;BME280;44781;53.444;14.476;2022-12-18T00:18:59;103208.23;;;-2.89;76.80
58991;BME280;44781;53.444;14.476;2022-12-18T00:21:28;103209.50;;;-2.95;76.85
58991;BME280;44781;53.444;14.476;2022-12-18T00:23:56;103219.30;;;-2.98;77.02
58991;BME280;44781;53.444;14.476;2022-12-18T00:26:30;103216.01;;;-2.99;77.14
58991;BME280;44781;53.444;14.476;2022-12-18T00:28:59;103217.59;;;-2.97;77.05
58991;BME280;44781;53.444;14.476;2022-12-18T00:31:27;103216.93;;;-2.95;77.28
58991;BME280;44781;53.444;14.476;2022-12-18T00:33:55;103220.05;;;-2.94;77.24
58991;BME280;44781;53.444;14.476;2022-12-18T00:36:31;103216.25;;;-2.94;77.17
58991;BME280;44781;53.444;14.476;2022-12-18T00:39:02;103218.65;;;-2.96;77.15
58991;BME280;44781;53.444;14.476;2022-12-18T00:41:30;103227.60;;;-2.98;77.06
58991;BME280;44781;53.444;14.476;2022-12-18T00:46:56;103226.08;;;-3.05;77.03
58991;BME280;44781;53.444;14.476;2022-12-18T00:49:58;103228.27;;;-3.08;77.05
58991;BME280;44781;53.444;14.476;2022-12-18T00:52:35;103226.31;;;-3.10;77.08
58991;BME280;44781;53.444;14.476;2022-12-18T00:55:07;103224.41;;;-3.11;77.08
58991;BME280;44781;53.444;14.476;2022-12-18T00:57:38;103224.77;;;-3.10;77.17
58991;BME280;44781;53.444;14.476;2022-12-18T01:00:17;103227.21;;;-3.09;77.27
58991;BME280;44781;53.444;14.476;2022-12-18T01:02:45;103230.54;;;-3.07;77.11
58991;BME280;44781;53.444;14.476;2022-12-18T01:05:12;103239.87;;;-3.07;77.15
58991;BME280;44781;53.444;14.476;2022-12-18T01:07:40;103238.66;;;-3.07;77.25
58991;BME280;44781;53.444;14.476;2022-12-18T01:10:08;103241.91;;;-3.08;77.15
58991;BME280;44781;53.444;14.476;2022-12-18T01:12:35;103242.04;;;-3.11;77.11
58991;BME280;44781;53.444;14.476;2022-12-18T01:15:02;103242.53;;;-3.13;77.17
58991;BME280;44781;53.444;14.476;2022-12-18T01:17:30;103247.66;;;-3.15;77.10
58991;BME280;44781;53.444;14.476;2022-12-18T01:19:57;103246.90;;;-3.19;77.23
58991;BME280;44781;53.444;14.476;2022-12-18T01:22:24;103248.04;;;-3.22;77.33
58991;BME280;44781;53.444;14.476;2022-12-18T01:24:51;103249.85;;;-3.26;77.23
58991;BME280;44781;53.444;14.476;2022-12-18T01:27:22;103256.69;;;-3.30;77.20
58991;BME280;44781;53.444;14.476;2022-12-18T01:29:49;103257.66;;;-3.33;77.22
58991;BME280;44781;53.444;14.476;2022-12-18T01:32:20;103258.85;;;-3.34;77.36
58991;BME280;44781;53.444;14.476;2022-12-18T01:34:47;103258.55;;;-3.32;77.41
58991;BME280;44781;53.444;14.476;2022-12-18T01:37:14;103253.56;;;-3.30;77.27
58991;BME280;44781;53.444;14.476;2022-12-18T01:39:41;103253.95;;;-3.29;77.38
58991;BME280;44781;53.444;14.476;2022-12-18T01:42:12;103260.56;;;-3.27;77.39
58991;BME280;44781;53.444;14.476;2022-12-18T01:47:32;103256.95;;;-3.26;77.40
58991;BME280;44781;53.444;14.476;2022-12-18T01:52:33;103264.52;;;-3.28;77.15
58991;BME280;44781;53.444;14.476;2022-12-18T01:55:02;103268.26;;;-3.30;77.02
58991;BME280;44781;53.444;14.476;2022-12-18T01:57:31;103270.41;;;-3.35;76.93
58991;BME280;44781;53.444;14.476;2022-12-18T02:00:04;103276.34;;;-3.40;76.93
58991;BME280;44781;53.444;14.476;2022-12-18T02:02:40;103276.59;;;-3.45;76.82
58991;BME280;44781;53.444;14.476;2022-12-18T02:05:08;103273.52;;;-3.51;76.97
58991;BME280;44781;53.444;14.476;2022-12-18T02:10:20;103277.13;;;-3.60;77.04
58991;BME280;44781;53.444;14.476;2022-12-18T02:12:53;103279.19;;;-3.60;77.02
58991;BME280;44781;53.444;14.476;2022-12-18T02:15:27;103279.73;;;-3.58;77.05
58991;BME280;44781;53.444;14.476;2022-12-18T02:18:00;103280.28;;;-3.58;76.91
58991;BME280;44781;53.444;14.476;2022-12-18T02:20:32;103279.61;;;-3.56;77.04
58991;BME280;44781;53.444;14.476;2022-12-18T02:28:25;103280.30;;;-3.57;76.88
58991;BME280;44781;53.444;14.476;2022-12-18T02:30:56;103282.84;;;-3.59;76.79
58991;BME280;44781;53.444;14.476;2022-12-18T02:33:25;103285.71;;;-3.62;76.72
58991;BME280;44781;53.444;14.476;2022-12-18T02:35:53;103285.98;;;-3.66;76.90
58991;BME280;44781;53.444;14.476;2022-12-18T02:38:21;103289.35;;;-3.69;76.82
58991;BME280;44781;53.444;14.476;2022-12-18T02:40:50;103290.67;;;-3.71;76.80
58991;BME280;44781;53.444;14.476;2022-12-18T02:43:18;103296.65;;;-3.74;76.80
58991;BME280;44781;53.444;14.476;2022-12-18T02:45:53;103296.21;;;-3.78;76.96
58991;BME280;44781;53.444;14.476;2022-12-18T02:48:26;103297.17;;;-3.81;76.82
58991;BME280;44781;53.444;14.476;2022-12-18T02:50:59;103298.13;;;-3.85;76.82
58991;BME280;44781;53.444;14.476;2022-12-18T02:56:05;103292.98;;;-3.90;76.74
58991;BME280;44781;53.444;14.476;2022-12-18T03:01:49;103281.66;;;-3.87;77.09
58991;BME280;44781;53.444;14.476;2022-12-18T03:03:56;103281.05;;;-3.83;77.01
58991;BME280;44781;53.444;14.476;2022-12-18T03:06:33;103286.84;;;-3.80;77.24
58991;BME280;44781;53.444;14.476;2022-12-18T03:09:04;103284.14;;;-3.77;77.40
58991;BME280;44781;53.444;14.476;2022-12-18T03:11:37;103287.79;;;-3.76;77.43
58991;BME280;44781;53.444;14.476;2022-12-18T03:14:25;103289.70;;;-3.76;77.10
58991;BME280;44781;53.444;14.476;2022-12-18T03:16:57;103295.73;;;-3.77;77.08
58991;BME280;44781;53.444;14.476;2022-12-18T03:19:27;103300.02;;;-3.78;77.12
58991;BME280;44781;53.444;14.476;2022-12-18T03:21:59;103303.77;;;-3.80;77.08
58991;BME280;44781;53.444;14.476;2022-12-18T03:24:32;103306.15;;;-3.82;77.12
58991;BME280;44781;53.444;14.476;2022-12-18T03:27:01;103309.02;;;-3.84;77.20
58991;BME280;44781;53.444;14.476;2022-12-18T03:29:32;103307.02;;;-3.88;77.16
58991;BME280;44781;53.444;14.476;2022-12-18T03:32:02;103309.56;;;-3.90;77.09
58991;BME280;44781;53.444;14.476;2022-12-18T03:34:33;103313.17;;;-3.91;77.16
58991;BME280;44781;53.444;14.476;2022-12-18T03:37:04;103311.30;;;-3.90;77.34
58991;BME280;44781;53.444;14.476;2022-12-18T03:39:32;103312.02;;;-3.88;77.16
58991;BME280;44781;53.444;14.476;2022-12-18T03:44:45;103320.17;;;-3.80;77.46
58991;BME280;44781;53.444;14.476;2022-12-18T03:47:27;103321.27;;;-3.78;77.46
58991;BME280;44781;53.444;14.476;2022-12-18T03:52:36;103316.14;;;-3.76;77.55
58991;BME280;44781;53.444;14.476;2022-12-18T03:55:05;103316.65;;;-3.76;77.51
58991;BME280;44781;53.444;14.476;2022-12-18T03:57:34;103317.32;;;-3.77;77.64
58991;BME280;44781;53.444;14.476;2022-12-18T04:00:05;103324.89;;;-3.78;77.41
58991;BME280;44781;53.444;14.476;2022-12-18T04:02:42;103329.33;;;-3.81;77.63
58991;BME280;44781;53.444;14.476;2022-12-18T04:05:11;103328.20;;;-3.84;77.31
58991;BME280;44781;53.444;14.476;2022-12-18T04:07:40;103328.46;;;-3.87;77.53
58991;BME280;44781;53.444;14.476;2022-12-18T04:10:09;103329.46;;;-3.89;77.43
58991;BME280;44781;53.444;14.476;2022-12-18T04:12:37;103329.73;;;-3.91;77.33
58991;BME280;44781;53.444;14.476;2022-12-18T04:15:10;103331.64;;;-3.91;77.37
58991;BME280;44781;53.444;14.476;2022-12-18T04:17:48;103328.71;;;-3.90;77.41
58991;BME280;44781;53.444;14.476;2022-12-18T04:20:18;103327.41;;;-3.88;77.57
58991;BME280;44781;53.444;14.476;2022-12-18T04:22:46;103325.09;;;-3.84;77.70
58991;BME280;44781;53.444;14.476;2022-12-18T04:25:13;103326.74;;;-3.80;77.70
58991;BME280;44781;53.444;14.476;2022-12-18T04:27:50;103328.20;;;-3.76;77.80
58991;BME280;44781;53.444;14.476;2022-12-18T04:30:18;103334.36;;;-3.72;77.73
58991;BME280;44781;53.444;14.476;2022-12-18T04:32:48;103337.36;;;-3.70;77.81
58991;BME280;44781;53.444;14.476;2022-12-18T04:35:17;103335.30;;;-3.68;77.70
58991;BME280;44781;53.444;14.476;2022-12-18T04:37:44;103332.20;;;-3.69;77.53
58991;BME280;44781;53.444;14.476;2022-12-18T04:40:11;103325.97;;;-3.69;77.65
58991;BME280;44781;53.444;14.476;2022-12-18T04:42:42;103326.81;;;-3.70;77.65
58991;BME280;44781;53.444;14.476;2022-12-18T04:45:09;103324.80;;;-3.74;77.69
58991;BME280;44781;53.444;14.476;2022-12-18T04:47:36;103328.48;;;-3.73;77.56
58991;BME280;44781;53.444;14.476;2022-12-18T04:50:03;103327.54;;;-3.76;77.62
58991;BME280;44781;53.444;14.476;2022-12-18T04:52:30;103320.20;;;-3.79;77.51
58991;BME280;44781;53.444;14.476;2022-12-18T04:54:57;103316.86;;;-3.82;77.43
58991;BME280;44781;53.444;14.476;2022-12-18T04:57:24;103320.67;;;-3.81;77.53
58991;BME280;44781;53.444;14.476;2022-12-18T04:59:52;103329.54;;;-3.79;77.47
58991;BME280;44781;53.444;14.476;2022-12-18T05:02:20;103333.06;;;-3.76;77.56
58991;BME280;44781;53.444;14.476;2022-12-18T05:04:47;103333.70;;;-3.71;77.45
58991;BME280;44781;53.444;14.476;2022-12-18T05:07:14;103335.84;;;-3.68;77.49
58991;BME280;44781;53.444;14.476;2022-12-18T05:09:41;103341.45;;;-3.65;77.51
58991;BME280;44781;53.444;14.476;2022-12-18T05:12:09;103349.81;;;-3.62;77.35
58991;BME280;44781;53.444;14.476;2022-12-18T05:14:36;103354.99;;;-3.62;77.38
58991;BME280;44781;53.444;14.476;2022-12-18T05:17:03;103359.15;;;-3.62;77.08
58991;BME280;44781;53.444;14.476;2022-12-18T05:19:31;103358.23;;;-3.64;77.29
58991;BME280;44781;53.444;14.476;2022-12-18T05:21:58;103365.97;;;-3.66;77.14
58991;BME280;44781;53.444;14.476;2022-12-18T05:24:25;103371.63;;;-3.68;77.20
58991;BME280;44781;53.444;14.476;2022-12-18T05:26:53;103376.23;;;-3.69;77.44
58991;BME280;44781;53.444;14.476;2022-12-18T05:29:21;103380.15;;;-3.72;77.13
58991;BME280;44781;53.444;14.476;2022-12-18T05:31:48;103383.35;;;-3.75;77.25
58991;BME280;44781;53.444;14.476;2022-12-18T05:34:15;103381.06;;;-3.77;77.51
58991;BME280;44781;53.444;14.476;2022-12-18T05:36:42;103384.10;;;-3.80;77.46
58991;BME280;44781;53.444;14.476;2022-12-18T05:39:09;103381.29;;;-3.82;77.49
58991;BME280;44781;53.444;14.476;2022-12-18T05:41:36;103382.48;;;-3.82;77.40
58991;BME280;44781;53.444;14.476;2022-12-18T05:44:12;103383.89;;;-3.81;77.30
58991;BME280;44781;53.444;14.476;2022-12-18T05:46:43;103395.93;;;-3.77;77.50
58991;BME280;44781;53.444;14.476;2022-12-18T05:49:10;103396.57;;;-3.72;77.52
58991;BME280;44781;53.444;14.476;2022-12-18T05:51:37;103396.00;;;-3.67;77.66
58991;BME280;44781;53.444;14.476;2022-12-18T05:54:04;103396.77;;;-3.64;77.33
58991;BME280;44781;53.444;14.476;2022-12-18T05:56:31;103397.14;;;-3.63;77.46
58991;BME280;44781;53.444;14.476;2022-12-18T05:58:58;103399.21;;;-3.63;77.26
58991;BME280;44781;53.444;14.476;2022-12-18T06:01:25;103406.13;;;-3.64;76.94
58991;BME280;44781;53.444;14.476;2022-12-18T06:03:54;103408.50;;;-3.65;76.83
58991;BME280;44781;53.444;14.476;2022-12-18T06:06:25;103412.75;;;-3.68;76.70
58991;BME280;44781;53.444;14.476;2022-12-18T06:08:53;103413.86;;;-3.71;76.64
58991;BME280;44781;53.444;14.476;2022-12-18T06:11:21;103409.64;;;-3.74;76.54
58991;BME280;44781;53.444;14.476;2022-12-18T06:13:49;103407.50;;;-3.77;76.68
58991;BME280;44781;53.444;14.476;2022-12-18T06:16:16;103409.67;;;-3.79;76.67
58991;BME280;44781;53.444;14.476;2022-12-18T06:18:43;103406.98;;;-3.83;76.63
58991;BME280;44781;53.444;14.476;2022-12-18T06:21:11;103411.02;;;-3.87;76.61
58991;BME280;44781;53.444;14.476;2022-12-18T06:23:38;103414.04;;;-3.91;76.47
58991;BME280;44781;53.444;14.476;2022-12-18T06:26:06;103420.88;;;-3.93;76.72
58991;BME280;44781;53.444;14.476;2022-12-18T06:28:34;103421.13;;;-3.97;76.64
58991;BME280;44781;53.444;14.476;2022-12-18T06:31:02;103422.74;;;-4.01;76.78
58991;BME280;44781;53.444;14.476;2022-12-18T06:33:29;103422.70;;;-4.03;76.81
58991;BME280;44781;53.444;14.476;2022-12-18T06:36:04;103427.59;;;-4.01;76.97
58991;BME280;44781;53.444;14.476;2022-12-18T06:38:32;103439.09;;;-3.97;77.12
58991;BME280;44781;53.444;14.476;2022-12-18T06:40:59;103443.20;;;-3.92;77.19
58991;BME280;44781;53.444;14.476;2022-12-18T06:43:26;103450.45;;;-3.86;77.15
58991;BME280;44781;53.444;14.476;2022-12-18T06:46:00;103456.12;;;-3.81;77.27
58991;BME280;44781;53.444;14.476;2022-12-18T06:48:27;103460.02;;;-3.77;77.46
58991;BME280;44781;53.444;14.476;2022-12-18T06:50:55;103460.78;;;-3.74;77.31
58991;BME280;44781;53.444;14.476;2022-12-18T06:53:23;103460.77;;;-3.74;77.25
58991;BME280;44781;53.444;14.476;2022-12-18T06:55:50;103457.45;;;-3.76;76.99
58991;BME280;44781;53.444;14.476;2022-12-18T06:58:17;103455.67;;;-3.78;76.65
58991;BME280;44781;53.444;14.476;2022-12-18T07:00:44;103456.48;;;-3.80;76.87
58991;BME280;44781;53.444;14.476;2022-12-18T07:03:13;103456.05;;;-3.83;76.55
58991;BME280;44781;53.444;14.476;2022-12-18T07:05:40;103450.42;;;-3.87;76.46
58991;BME280;44781;53.444;14.476;2022-12-18T07:08:08;103452.92;;;-3.90;76.40
58991;BME280;44781;53.444;14.476;2022-12-18T07:10:40;103455.28;;;-3.92;76.35
58991;BME280;44781;53.444;14.476;2022-12-18T07:13:07;103455.18;;;-3.96;76.53
58991;BME280;44781;53.444;14.476;2022-12-18T07:15:35;103450.95;;;-4.00;76.54
58991;BME280;44781;53.444;14.476;2022-12-18T07:18:02;103448.42;;;-4.03;76.31
58991;BME280;44781;53.444;14.476;2022-12-18T07:20:30;103450.74;;;-4.07;76.42
58991;BME280;44781;53.444;14.476;2022-12-18T07:23:01;103454.44;;;-4.10;76.46
58991;BME280;44781;53.444;14.476;2022-12-18T07:25:28;103456.56;;;-4.14;76.57
58991;BME280;44781;53.444;14.476;2022-12-18T07:27:58;103456.46;;;-4.18;76.51
58991;BME280;44781;53.444;14.476;2022-12-18T07:30:25;103454.83;;;-4.22;76.62
58991;BME280;44781;53.444;14.476;2022-12-18T07:32:53;103463.20;;;-4.24;76.61
58991;BME280;44781;53.444;14.476;2022-12-18T07:35:22;103468.33;;;-4.26;76.67
58991;BME280;44781;53.444;14.476;2022-12-18T07:37:50;103476.20;;;-4.29;76.85
58991;BME280;44781;53.444;14.476;2022-12-18T07:40:17;103474.23;;;-4.31;76.94
58991;BME280;44781;53.444;14.476;2022-12-18T07:42:44;103477.11;;;-4.32;76.92
58991;BME280;44781;53.444;14.476;2022-12-18T07:45:11;103477.39;;;-4.35;76.74
58991;BME280;44781;53.444;14.476;2022-12-18T07:47:40;103480.81;;;-4.36;76.92
58991;BME280;44781;53.444;14.476;2022-12-18T07:50:07;103481.06;;;-4.33;77.07
58991;BME280;44781;53.444;14.476;2022-12-18T07:52:34;103477.95;;;-4.28;77.01
58991;BME280;44781;53.444;14.476;2022-12-18T07:55:02;103482.98;;;-4.21;77.27
58991;BME280;44781;53.444;14.476;2022-12-18T07:57:31;103489.23;;;-4.14;77.22
58991;BME280;44781;53.444;14.476;2022-12-18T07:59:57;103495.64;;;-4.07;77.54
58991;BME280;44781;53.444;14.476;2022-12-18T08:02:26;103496.84;;;-4.01;77.66
58991;BME280;44781;53.444;14.476;2022-12-18T08:04:57;103501.81;;;-3.97;77.52
58991;BME280;44781;53.444;14.476;2022-12-18T08:07:25;103508.11;;;-3.93;77.47
58991;BME280;44781;53.444;14.476;2022-12-18T08:09:55;103508.69;;;-3.91;77.42
58991;BME280;44781;53.444;14.476;2022-12-18T08:12:22;103502.95;;;-3.92;77.17
58991;BME280;44781;53.444;14.476;2022-12-18T08:14:50;103488.35;;;-4.02;76.96
58991;BME280;44781;53.444;14.476;2022-12-18T08:17:18;103486.40;;;-4.04;76.93
58991;BME280;44781;53.444;14.476;2022-12-18T08:19:45;103508.19;;;-3.97;76.83
58991;BME280;44781;53.444;14.476;2022-12-18T08:22:13;103515.75;;;-3.99;76.68
58991;BME280;44781;53.444;14.476;2022-12-18T08:24:43;103518.81;;;-4.00;76.76
58991;BME280;44781;53.444;14.476;2022-12-18T08:27:10;103523.59;;;-4.02;76.74
58991;BME280;44781;53.444;14.476;2022-12-18T08:29:37;103526.95;;;-4.05;76.70
58991;BME280;44781;53.444;14.476;2022-12-18T08:32:05;103528.98;;;-4.07;76.65
58991;BME280;44781;53.444;14.476;2022-12-18T08:34:32;103523.59;;;-4.08;76.56
58991;BME280;44781;53.444;14.476;2022-12-18T08:36:59;103520.75;;;-4.10;76.50
58991;BME280;44781;53.444;14.476;2022-12-18T08:39:26;103511.50;;;-4.13;76.66
58991;BME280;44781;53.444;14.476;2022-12-18T08:41:54;103506.23;;;-4.17;76.82
58991;BME280;44781;53.444;14.476;2022-12-18T08:44:40;103497.03;;;-4.19;76.81
58991;BME280;44781;53.444;14.476;2022-12-18T08:47:07;103496.09;;;-4.21;76.81
58991;BME280;44781;53.444;14.476;2022-12-18T08:49:34;103501.74;;;-4.22;76.83
58991;BME280;44781;53.444;14.476;2022-12-18T08:52:02;103507.21;;;-4.24;76.98
58991;BME280;44781;53.444;14.476;2022-12-18T08:54:29;103509.80;;;-4.25;77.08
58991;BME280;44781;53.444;14.476;2022-12-18T08:56:56;103512.02;;;-4.26;77.17
58991;BME280;44781;53.444;14.476;2022-12-18T08:59:23;103511.48;;;-4.26;77.09
58991;BME280;44781;53.444;14.476;2022-12-18T09:01:52;103513.69;;;-4.28;77.29
58991;BME280;44781;53.444;14.476;2022-12-18T09:04:20;103520.41;;;-4.28;77.26
58991;BME280;44781;53.444;14.476;2022-12-18T09:06:47;103526.77;;;-4.29;77.44
58991;BME280;44781;53.444;14.476;2022-12-18T09:09:14;103523.81;;;-4.29;77.28
58991;BME280;44781;53.444;14.476;2022-12-18T09:11:42;103517.04;;;-4.31;77.51
58991;BME280;44781;53.444;14.476;2022-12-18T09:14:10;103521.19;;;-4.30;77.66
58991;BME280;44781;53.444;14.476;2022-12-18T09:16:38;103524.31;;;-4.30;77.82
58991;BME280;44781;53.444;14.476;2022-12-18T09:19:05;103521.98;;;-4.28;77.71
58991;BME280;44781;53.444;14.476;2022-12-18T09:21:33;103523.02;;;-4.22;78.01
58991;BME280;44781;53.444;14.476;2022-12-18T09:24:10;103521.33;;;-4.14;78.05
58991;BME280;44781;53.444;14.476;2022-12-18T09:26:41;103526.80;;;-4.04;78.07
58991;BME280;44781;53.444;14.476;2022-12-18T09:29:08;103516.20;;;-4.00;78.07
58991;BME280;44781;53.444;14.476;2022-12-18T09:31:36;103525.05;;;-3.87;78.36
58991;BME280;44781;53.444;14.476;2022-12-18T09:34:05;103525.06;;;-3.80;78.16
58991;BME280;44781;53.444;14.476;2022-12-18T09:36:32;103519.80;;;-3.76;78.26
58991;BME280;44781;53.444;14.476;2022-12-18T09:39:00;103519.63;;;-3.70;77.96
58991;BME280;44781;53.444;14.476;2022-12-18T09:43:56;103531.55;;;-3.64;77.92
58991;BME280;44781;53.444;14.476;2022-12-18T09:46:33;103529.02;;;-3.62;77.87
58991;BME280;44781;53.444;14.476;2022-12-18T09:49:02;103529.73;;;-3.61;77.73
58991;BME280;44781;53.444;14.476;2022-12-18T09:51:34;103528.70;;;-3.61;77.95
58991;BME280;44781;53.444;14.476;2022-12-18T09:54:14;103527.67;;;-3.60;77.85
58991;BME280;44781;53.444;14.476;2022-12-18T09:56:42;103526.30;;;-3.60;77.88
58991;BME280;44781;53.444;14.476;2022-12-18T10:01:56;103523.40;;;-3.59;77.77
58991;BME280;44781;53.444;14.476;2022-12-18T10:04:24;103525.80;;;-3.60;77.61
58991;BME280;44781;53.444;14.476;2022-12-18T10:06:55;103530.82;;;-3.60;77.68
58991;BME280;44781;53.444;14.476;2022-12-18T10:09:28;103531.30;;;-3.61;77.55
58991;BME280;44781;53.444;14.476;2022-12-18T10:14:35;103537.02;;;-3.60;77.63
58991;BME280;44781;53.444;14.476;2022-12-18T10:17:26;103540.98;;;-3.61;77.77
58991;BME280;44781;53.444;14.476;2022-12-18T10:20:45;103540.98;;;-3.61;77.53
58991;BME280;44781;53.444;14.476;2022-12-18T10:25:37;103536.64;;;-3.61;77.72
58991;BME280;44781;53.444;14.476;2022-12-18T10:28:12;103534.91;;;-3.61;77.61
58991;BME280;44781;53.444;14.476;2022-12-18T10:30:40;103524.04;;;-3.61;77.65
58991;BME280;44781;53.444;14.476;2022-12-18T10:33:15;103520.73;;;-3.61;77.70
58991;BME280;44781;53.444;14.476;2022-12-18T10:35:43;103511.90;;;-3.62;77.75
58991;BME280;44781;53.444;14.476;2022-12-18T10:40:50;103500.13;;;-3.63;77.74
58991;BME280;44781;53.444;14.476;2022-12-18T10:43:36;103495.83;;;-3.63;77.79
58991;BME280;44781;53.444;14.476;2022-12-18T10:48:35;103509.12;;;-3.49;77.97
58991;BME280;44781;53.444;14.476;2022-12-18T10:51:03;103507.77;;;-3.42;78.21
58991;BME280;44781;53.444;14.476;2022-12-18T10:53:30;103503.47;;;-3.34;78.02
58991;BME280;44781;53.444;14.476;2022-12-18T10:55:58;103496.36;;;-3.28;78.06
58991;BME280;44781;53.444;14.476;2022-12-18T10:58:27;103490.27;;;-3.23;77.88
58991;BME280;44781;53.444;14.476;2022-12-18T11:03:41;103494.75;;;-3.17;77.79
58991;BME280;44781;53.444;14.476;2022-12-18T11:06:12;103491.45;;;-3.17;77.63
58991;BME280;44781;53.444;14.476;2022-12-18T11:08:40;103496.53;;;-3.14;77.52
58991;BME280;44781;53.444;14.476;2022-12-18T11:11:21;103490.50;;;-3.13;77.62
58991;BME280;44781;53.444;14.476;2022-12-18T11:13:52;103480.64;;;-3.13;77.64
58991;BME280;44781;53.444;14.476;2022-12-18T11:16:21;103471.50;;;-3.12;77.39
58991;BME280;44781;53.444;14.476;2022-12-18T11:18:50;103471.48;;;-3.13;77.54
58991;BME280;44781;53.444;14.476;2022-12-18T11:21:17;103476.30;;;-3.14;77.61
58991;BME280;44781;53.444;14.476;2022-12-18T11:23:54;103479.22;;;-3.15;77.41
58991;BME280;44781;53.444;14.476;2022-12-18T11:26:21;103484.58;;;-3.16;77.45
58991;BME280;44781;53.444;14.476;2022-12-18T11:29:09;103484.20;;;-3.17;77.51
58991;BME280;44781;53.444;14.476;2022-12-18T11:31:38;103483.31;;;-3.18;77.24
58991;BME280;44781;53.444;14.476;2022-12-18T11:36:51;103480.70;;;-3.19;77.39
58991;BME280;44781;53.444;14.476;2022-12-18T11:39:33;103480.01;;;-3.18;77.49
58991;BME280;44781;53.444;14.476;2022-12-18T11:42:15;103463.94;;;-3.25;77.58
58991;BME280;44781;53.444;14.476;2022-12-18T11:44:47;103458.55;;;-3.25;77.43
58991;BME280;44781;53.444;14.476;2022-12-18T11:49:42;103469.42;;;-3.20;77.48
58991;BME280;44781;53.444;14.476;2022-12-18T11:52:14;103467.33;;;-3.21;77.43
58991;BME280;44781;53.444;14.476;2022-12-18T11:54:43;103470.26;;;-3.21;77.62
58991;BME280;44781;53.444;14.476;2022-12-18T11:57:15;103473.36;;;-3.22;77.55
58991;BME280;44781;53.444;14.476;2022-12-18T12:04:57;103460.20;;;-3.22;77.74
58991;BME280;44781;53.444;14.476;2022-12-18T12:07:36;103458.77;;;-3.17;78.11
58991;BME280;44781;53.444;14.476;2022-12-18T12:15:27;103457.11;;;-2.92;78.30
58991;BME280;44781;53.444;14.476;2022-12-18T12:18:19;103456.97;;;-2.83;78.38
58991;BME280;44781;53.444;14.476;2022-12-18T12:20:53;103458.55;;;-2.74;78.23
58991;BME280;44781;53.444;14.476;2022-12-18T12:26:12;103454.98;;;-2.63;78.02
58991;BME280;44781;53.444;14.476;2022-12-18T12:39:06;103458.10;;;-2.55;77.63
58991;BME280;44781;53.444;14.476;2022-12-18T12:41:35;103463.77;;;-2.57;77.34
58991;BME280;44781;53.444;14.476;2022-12-18T12:44:23;103463.55;;;-2.59;77.31
58991;BME280;44781;53.444;14.476;2022-12-18T12:46:51;103462.98;;;-2.62;77.18
58991;BME280;44781;53.444;14.476;2022-12-18T12:49:19;103467.09;;;-2.64;77.14
58991;BME280;44781;53.444;14.476;2022-12-18T12:51:50;103467.57;;;-2.66;77.16
58991;BME280;44781;53.444;14.476;2022-12-18T12:54:23;103467.35;;;-2.68;77.06
58991;BME280;44781;53.444;14.476;2022-12-18T12:57:04;103473.00;;;-2.70;76.81
58991;BME280;44781;53.444;14.476;2022-12-18T12:59:37;103482.29;;;-2.72;76.83
58991;BME280;44781;53.444;14.476;2022-12-18T13:02:26;103496.08;;;-2.75;76.68
58991;BME280;44781;53.444;14.476;2022-12-18T13:07:57;103498.52;;;-2.82;76.85
58991;BME280;44781;53.444;14.476;2022-12-18T13:10:28;103499.00;;;-2.84;76.96
58991;BME280;44781;53.444;14.476;2022-12-18T13:13:05;103505.02;;;-2.86;77.06
58991;BME280;44781;53.444;14.476;2022-12-18T13:15:39;103509.99;;;-2.87;77.00
58991;BME280;44781;53.444;14.476;2022-12-18T13:20:38;103503.00;;;-2.82;76.97
58991;BME280;44781;53.444;14.476;2022-12-18T13:23:23;103497.24;;;-2.77;77.02
58991;BME280;44781;53.444;14.476;2022-12-18T13:25:53;103506.06;;;-2.70;77.25
58991;BME280;44781;53.444;14.476;2022-12-18T13:30:55;103514.46;;;-2.58;77.18
58991;BME280;44781;53.444;14.476;2022-12-18T13:38:37;103512.36;;;-2.52;76.78
58991;BME280;44781;53.444;14.476;2022-12-18T13:41:22;103510.29;;;-2.52;76.52
58991;BME280;44781;53.444;14.476;2022-12-18T13:43:57;103508.86;;;-2.53;76.25
58991;BME280;44781;53.444;14.476;2022-12-18T13:46:43;103507.77;;;-2.56;76.16
58991;BME280;44781;53.444;14.476;2022-12-18T13:51:44;103502.25;;;-2.63;75.81
58991;BME280;44781;53.444;14.476;2022-12-18T13:54:33;103503.35;;;-2.67;75.93
58991;BME280;44781;53.444;14.476;2022-12-18T13:57:02;103503.41;;;-2.72;75.92
58991;BME280;44781;53.444;14.476;2022-12-18T13:59:33;103503.27;;;-2.78;75.73
58991;BME280;44781;53.444;14.476;2022-12-18T14:02:05;103504.89;;;-2.83;75.82
58991;BME280;44781;53.444;14.476;2022-12-18T14:04:39;103499.23;;;-2.88;75.70
58991;BME280;44781;53.444;14.476;2022-12-18T14:09:43;103493.70;;;-2.96;75.94
58991;BME280;44781;53.444;14.476;2022-12-18T14:12:14;103486.35;;;-2.99;75.94
58991;BME280;44781;53.444;14.476;2022-12-18T14:15:02;103481.07;;;-3.02;76.01
58991;BME280;44781;53.444;14.476;2022-12-18T14:17:30;103481.88;;;-3.05;75.97
58991;BME280;44781;53.444;14.476;2022-12-18T14:19:58;103484.08;;;-3.07;75.97
58991;BME280;44781;53.444;14.476;2022-12-18T14:22:25;103485.73;;;-3.10;76.09
58991;BME280;44781;53.444;14.476;2022-12-18T14:27:47;103471.31;;;-3.20;76.40
58991;BME280;44781;53.444;14.476;2022-12-18T14:35:54;103447.78;;;-3.21;76.33
58991;BME280;44781;53.444;14.476;2022-12-18T14:38:30;103439.61;;;-3.23;76.30